Time;durP1;ratioP1;P1;durP2;ratioP2;P2;SDS_P1;SDS_P2;PMS_P1;PMS_P2;Temp;Humidity;BMP_temperature;BMP_pressure;BME280_temperature;BME280_humidity;BME280_pressure;Samples;Min_cycle;Max_cycle;Signal;HPM_P1;HPM_P2
2021/09/11 00:00:57;;;;;;;6.40;2.13;;;;;;;;;;4990582;28;20054;-61
2021/09/11 00:06:29;;;;;;;9.23;2.63;;;;;;;;;;4990873;28;20056;-62
2021/09/11 00:08:55;;;;;;;6.85;2.00;;;;;;;;;;4989942;28;20058;-62
2021/09/11 00:11:20;;;;;;;8.93;2.10;;;;;;;;;;4989047;28;20050;-63
2021/09/11 00:13:46;;;;;;;12.00;2.08;;;;;;;;;;4991625;28;20372;-61
2021/09/11 00:16:12;;;;;;;7.78;1.95;;;;;;;;;;4991922;28;20140;-60
2021/09/11 00:18:38;;;;;;;10.55;2.05;;;;;;;;;;4997918;28;20041;-61
2021/09/11 00:21:04;;;;;;;8.00;1.75;;;;;;;;;;4988950;28;20477;-62
2021/09/11 00:23:30;;;;;;;9.88;1.92;;;;;;;;;;4998827;28;20042;-61
2021/09/11 00:25:59;;;;;;;7.95;1.80;;;;;;;;;;4988844;28;20050;-60
2021/09/11 00:28:25;;;;;;;12.23;1.60;;;;;;;;;;4990842;28;20050;-60
2021/09/11 00:30:51;;;;;;;13.65;2.20;;;;;;;;;;4998986;28;20042;-60
2021/09/11 00:33:17;;;;;;;16.25;2.25;;;;;;;;;;4990139;28;20191;-60
2021/09/11 00:35:43;;;;;;;6.97;1.90;;;;;;;;;;4989804;28;20111;-62
2021/09/11 00:38:09;;;;;;;11.85;2.08;;;;;;;;;;4991242;28;20582;-61
2021/09/11 00:40:34;;;;;;;7.72;1.73;;;;;;;;;;4989121;28;20053;-61
2021/09/11 00:43:00;;;;;;;7.38;1.58;;;;;;;;;;4998582;28;20060;-60
2021/09/11 00:45:26;;;;;;;13.88;2.05;;;;;;;;;;4989316;28;20041;-62
2021/09/11 00:47:52;;;;;;;7.82;1.70;;;;;;;;;;4988826;28;20046;-62
2021/09/11 00:50:21;;;;;;;5.47;1.50;;;;;;;;;;4990000;28;20716;-61
2021/09/11 00:52:47;;;;;;;8.73;1.80;;;;;;;;;;4989997;28;20038;-60
2021/09/11 00:55:13;;;;;;;17.67;1.80;;;;;;;;;;4990711;28;20076;-62
2021/09/11 00:57:45;;;;;;;4.50;1.55;;;;;;;;;;4989277;28;20045;-62
2021/09/11 01:00:12;;;;;;;10.30;1.70;;;;;;;;;;4989889;28;20058;-60
2021/09/11 01:02:38;;;;;;;7.85;1.40;;;;;;;;;;4990550;28;20049;-58
2021/09/11 01:05:05;;;;;;;5.32;1.30;;;;;;;;;;4991617;28;20048;-60
2021/09/11 01:07:31;;;;;;;7.20;1.60;;;;;;;;;;4998779;28;20582;-60
2021/09/11 01:09:58;;;;;;;12.55;1.50;;;;;;;;;;4990215;28;20100;-62
2021/09/11 01:12:24;;;;;;;6.57;1.73;;;;;;;;;;4990406;28;20053;-60
2021/09/11 01:14:50;;;;;;;6.57;1.52;;;;;;;;;;4991356;28;20041;-61
2021/09/11 01:17:16;;;;;;;5.68;1.52;;;;;;;;;;4988444;28;20054;-59
2021/09/11 01:19:43;;;;;;;6.03;1.50;;;;;;;;;;4989801;28;20049;-60
2021/09/11 01:22:15;;;;;;;9.35;1.85;;;;;;;;;;4990395;28;20035;-60
2021/09/11 01:24:41;;;;;;;;;;;;;;;;;;4988966;28;20042;-61
2021/09/11 01:27:06;;;;;;;4.28;1.42;;;;;;;;;;4989767;28;19955;-60
2021/09/11 01:29:32;;;;;;;7.10;1.70;;;;;;;;;;4987404;28;20034;-61
2021/09/11 01:31:58;;;;;;;7.95;1.40;;;;;;;;;;4988258;28;20112;-60
2021/09/11 01:34:24;;;;;;;7.85;1.70;;;;;;;;;;4986965;28;20419;-61
2021/09/11 01:36:50;;;;;;;8.80;1.33;;;;;;;;;;4988958;28;20057;-61
2021/09/11 01:39:15;;;;;;;9.88;1.48;;;;;;;;;;4988074;28;20219;-61
2021/09/11 01:41:41;;;;;;;5.85;1.55;;;;;;;;;;4988388;28;20058;-60
2021/09/11 01:44:07;;;;;;;9.48;1.42;;;;;;;;;;4989235;28;20037;-62
2021/09/11 01:46:33;;;;;;;7.32;1.75;;;;;;;;;;4989798;28;20129;-62
2021/09/11 01:48:59;;;;;;;8.20;1.67;;;;;;;;;;4989202;28;20044;-61
2021/09/11 01:51:25;;;;;;;7.70;1.30;;;;;;;;;;4988374;28;20039;-61
2021/09/11 01:53:50;;;;;;;4.35;1.60;;;;;;;;;;4988000;28;20065;-61
2021/09/11 01:56:16;;;;;;;4.15;1.52;;;;;;;;;;4988575;28;20193;-59
2021/09/11 01:58:42;;;;;;;6.00;1.80;;;;;;;;;;4987968;28;20046;-61
2021/09/11 02:01:08;;;;;;;6.28;1.40;;;;;;;;;;4987388;28;20045;-60
2021/09/11 02:03:33;;;;;;;8.07;1.48;;;;;;;;;;4988362;28;20268;-60
2021/09/11 02:05:59;;;;;;;8.68;2.20;;;;;;;;;;4987581;28;21920;-60
2021/09/11 02:08:25;;;;;;;4.65;1.27;;;;;;;;;;4986907;28;20038;-60
2021/09/11 02:10:51;;;;;;;7.13;1.52;;;;;;;;;;4987303;28;20160;-60
2021/09/11 02:13:17;;;;;;;5.68;1.80;;;;;;;;;;4986899;28;20121;-60
2021/09/11 02:15:54;;;;;;;7.93;1.30;;;;;;;;;;4995635;28;20146;-63
2021/09/11 02:18:19;;;;;;;6.22;1.70;;;;;;;;;;4987511;28;20050;-60
2021/09/11 02:20:45;;;;;;;9.13;1.80;;;;;;;;;;4986327;28;20099;-61
2021/09/11 02:23:11;;;;;;;6.57;1.63;;;;;;;;;;4987319;28;20038;-56
2021/09/11 02:25:38;;;;;;;9.13;1.75;;;;;;;;;;4987683;28;20046;-59
2021/09/11 02:28:04;;;;;;;6.57;1.42;;;;;;;;;;4990442;28;20372;-58
2021/09/11 02:30:30;;;;;;;5.03;1.50;;;;;;;;;;4987899;28;20049;-60
2021/09/11 02:32:55;;;;;;;9.70;1.60;;;;;;;;;;4991684;28;20038;-55
2021/09/11 02:35:21;;;;;;;4.40;1.40;;;;;;;;;;4991613;28;20038;-59
2021/09/11 02:37:47;;;;;;;3.85;1.15;;;;;;;;;;4992115;28;20050;-59
2021/09/11 02:40:13;;;;;;;7.78;1.40;;;;;;;;;;4991999;28;20077;-57
2021/09/11 02:42:39;;;;;;;8.43;1.60;;;;;;;;;;4993266;28;20045;-59
2021/09/11 02:45:05;;;;;;;6.32;1.73;;;;;;;;;;4992591;28;20675;-58
2021/09/11 02:47:31;;;;;;;6.18;1.60;;;;;;;;;;4988966;28;20073;-57
2021/09/11 02:49:57;;;;;;;5.68;1.10;;;;;;;;;;4990609;28;20050;-58
2021/09/11 02:52:22;;;;;;;6.78;1.33;;;;;;;;;;4991201;28;20038;-60
2021/09/11 02:54:48;;;;;;;5.47;1.20;;;;;;;;;;4992339;28;20046;-59
2021/09/11 02:57:14;;;;;;;4.85;1.40;;;;;;;;;;4997317;28;20044;-57
2021/09/11 02:59:40;;;;;;;10.55;1.55;;;;;;;;;;4994136;28;20053;-59
2021/09/11 03:02:05;;;;;;;6.57;1.40;;;;;;;;;;4989619;28;20058;-58
2021/09/11 03:04:31;;;;;;;4.78;1.30;;;;;;;;;;4988503;28;20037;-59
2021/09/11 03:06:57;;;;;;;4.25;1.40;;;;;;;;;;4988864;28;20130;-59
2021/09/11 03:09:23;;;;;;;5.88;1.00;;;;;;;;;;4988186;28;20324;-58
2021/09/11 03:11:49;;;;;;;5.65;1.27;;;;;;;;;;4989690;28;20096;-56
2021/09/11 03:14:15;;;;;;;5.22;1.80;;;;;;;;;;5020342;28;20069;-61
2021/09/11 03:16:41;;;;;;;7.95;1.75;;;;;;;;;;4987773;28;20046;-58
2021/09/11 03:19:07;;;;;;;7.97;1.70;;;;;;;;;;4987186;28;20148;-59
2021/09/11 03:21:32;;;;;;;5.68;1.40;;;;;;;;;;4985124;28;20100;-58
2021/09/11 03:23:58;;;;;;;6.22;1.25;;;;;;;;;;4987478;28;20050;-58
2021/09/11 03:26:24;;;;;;;5.78;1.20;;;;;;;;;;4987244;28;20845;-59
2021/09/11 03:28:50;;;;;;;6.68;1.33;;;;;;;;;;4994973;28;20034;-59
2021/09/11 03:31:16;;;;;;;6.68;1.40;;;;;;;;;;4987942;28;20042;-58
2021/09/11 03:33:41;;;;;;;3.42;1.10;;;;;;;;;;4985778;28;20736;-59
2021/09/11 03:36:07;;;;;;;3.60;1.30;;;;;;;;;;5014913;28;20057;-58
2021/09/11 03:38:33;;;;;;;4.65;1.23;;;;;;;;;;4986000;28;20034;-60
2021/09/11 03:40:59;;;;;;;8.75;1.60;;;;;;;;;;4987567;28;20046;-60
2021/09/11 03:43:25;;;;;;;8.63;1.80;;;;;;;;;;4980157;28;20133;-59
2021/09/11 03:45:51;;;;;;;5.88;1.60;;;;;;;;;;4988006;28;20054;-57
2021/09/11 03:48:17;;;;;;;7.00;1.70;;;;;;;;;;5006108;28;20153;-58
2021/09/11 03:50:42;;;;;;;6.40;1.42;;;;;;;;;;4985797;28;20097;-62
2021/09/11 03:53:08;;;;;;;8.45;1.80;;;;;;;;;;4985869;28;20101;-61
2021/09/11 03:55:34;;;;;;;4.97;1.92;;;;;;;;;;4986242;28;20046;-61
2021/09/11 03:58:00;;;;;;;10.45;2.15;;;;;;;;;;4988057;28;20064;-61
2021/09/11 04:00:25;;;;;;;8.77;2.13;;;;;;;;;;4987293;28;20058;-62
2021/09/11 04:02:51;;;;;;;5.78;1.90;;;;;;;;;;4988639;28;20069;-60
2021/09/11 04:05:17;;;;;;;3.88;1.52;;;;;;;;;;4991160;28;20304;-61
2021/09/11 04:07:43;;;;;;;8.18;1.65;;;;;;;;;;4987238;28;20042;-61
2021/09/11 04:10:09;;;;;;;3.78;1.48;;;;;;;;;;4992611;28;20104;-63
2021/09/11 04:12:35;;;;;;;5.07;1.60;;;;;;;;;;4988312;28;20918;-61
2021/09/11 04:15:01;;;;;;;5.97;1.60;;;;;;;;;;4989156;28;20049;-61
2021/09/11 04:17:27;;;;;;;6.13;1.65;;;;;;;;;;4988021;28;20065;-61
2021/09/11 04:19:52;;;;;;;7.75;1.33;;;;;;;;;;4992221;28;20618;-63
2021/09/11 04:22:18;;;;;;;5.10;1.45;;;;;;;;;;4989303;28;20042;-61
2021/09/11 04:24:44;;;;;;;3.97;1.30;;;;;;;;;;4987989;28;20034;-60
2021/09/11 04:27:10;;;;;;;8.88;1.70;;;;;;;;;;4992404;28;20041;-63
2021/09/11 04:29:36;;;;;;;14.05;1.92;;;;;;;;;;4987874;28;20050;-62
2021/09/11 04:32:02;;;;;;;7.50;1.80;;;;;;;;;;4987236;28;20145;-59
2021/09/11 04:34:27;;;;;;;7.68;1.58;;;;;;;;;;4988482;28;20108;-59
2021/09/11 04:36:53;;;;;;;8.40;1.55;;;;;;;;;;4989127;28;20088;-62
2021/09/11 04:39:19;;;;;;;6.22;1.30;;;;;;;;;;4986836;28;20428;-60
2021/09/11 04:41:45;;;;;;;8.70;1.60;;;;;;;;;;4988163;28;20099;-60
2021/09/11 04:44:11;;;;;;;7.05;1.75;;;;;;;;;;4995230;28;20075;-61
2021/09/11 04:46:37;;;;;;;16.17;1.80;;;;;;;;;;4989508;28;20554;-60
2021/09/11 04:49:02;;;;;;;6.22;1.60;;;;;;;;;;4992493;28;20776;-60
2021/09/11 04:51:28;;;;;;;4.05;1.20;;;;;;;;;;4999949;28;20367;-60
2021/09/11 04:53:54;;;;;;;5.85;1.52;;;;;;;;;;4990831;28;20138;-61
2021/09/11 04:56:20;;;;;;;21.88;1.98;;;;;;;;;;4986923;28;20038;-60
2021/09/11 04:58:46;;;;;;;7.50;1.50;;;;;;;;;;4987885;28;20601;-59
2021/09/11 05:01:12;;;;;;;4.40;1.40;;;;;;;;;;4985697;28;20050;-59
2021/09/11 05:03:37;;;;;;;6.35;1.50;;;;;;;;;;4986379;28;20271;-61
2021/09/11 05:06:03;;;;;;;6.63;1.60;;;;;;;;;;4985449;28;20072;-61
2021/09/11 05:08:32;;;;;;;5.50;1.48;;;;;;;;;;4985817;28;20038;-61
2021/09/11 05:10:58;;;;;;;7.75;1.30;;;;;;;;;;4985858;28;20065;-61
2021/09/11 05:13:24;;;;;;;4.95;1.15;;;;;;;;;;4987121;28;20584;-61
2021/09/11 05:15:49;;;;;;;6.82;1.52;;;;;;;;;;4986827;28;20129;-64
2021/09/11 05:18:15;;;;;;;7.55;1.35;;;;;;;;;;4985716;28;20046;-59
2021/09/11 05:20:41;;;;;;;6.75;1.60;;;;;;;;;;4983686;28;20053;-61
2021/09/11 05:23:07;;;;;;;3.80;1.45;;;;;;;;;;4987572;28;20050;-63
2021/09/11 05:25:33;;;;;;;6.75;1.40;;;;;;;;;;4985003;28;20042;-61
2021/09/11 05:27:59;;;;;;;7.40;1.48;;;;;;;;;;4986352;28;20041;-61
2021/09/11 05:30:25;;;;;;;8.75;1.80;;;;;;;;;;4983777;28;22066;-62
2021/09/11 05:32:50;;;;;;;4.15;1.48;;;;;;;;;;4984812;28;20034;-61
2021/09/11 05:35:16;;;;;;;4.22;1.38;;;;;;;;;;4986015;28;20156;-62
2021/09/11 05:37:42;;;;;;;6.80;1.58;;;;;;;;;;4985907;28;20061;-62
2021/09/11 05:40:08;;;;;;;6.53;1.83;;;;;;;;;;4984542;28;20123;-61
2021/09/11 05:42:36;;;;;;;8.00;1.70;;;;;;;;;;4984548;28;20050;-62
2021/09/11 05:45:03;;;;;;;7.05;1.48;;;;;;;;;;4987119;28;20050;-61
2021/09/11 05:47:29;;;;;;;9.18;1.60;;;;;;;;;;4985463;28;20056;-61
2021/09/11 05:49:56;;;;;;;5.82;1.77;;;;;;;;;;4982902;28;20963;-62
2021/09/11 05:52:23;;;;;;;9.82;1.73;;;;;;;;;;4993574;28;20472;-62
2021/09/11 05:54:50;;;;;;;6.57;1.70;;;;;;;;;;4988401;28;20039;-61
2021/09/11 05:57:15;;;;;;;7.55;1.70;;;;;;;;;;4986503;28;20039;-60
2021/09/11 05:59:41;;;;;;;11.57;1.52;;;;;;;;;;4984931;28;20983;-62
2021/09/11 06:02:07;;;;;;;4.68;1.70;;;;;;;;;;4985400;28;20062;-61
2021/09/11 06:04:33;;;;;;;4.30;1.35;;;;;;;;;;4984663;28;20038;-62
2021/09/11 06:06:59;;;;;;;7.20;2.00;;;;;;;;;;4984484;28;20053;-62
2021/09/11 06:09:24;;;;;;;10.90;1.80;;;;;;;;;;4984193;28;20046;-62
2021/09/11 06:11:50;;;;;;;6.30;1.65;;;;;;;;;;4985481;28;20364;-62
2021/09/11 06:14:16;;;;;;;3.42;1.30;;;;;;;;;;4985132;28;20046;-61
2021/09/11 06:16:42;;;;;;;7.80;1.98;;;;;;;;;;4985293;28;20050;-61
2021/09/11 06:19:08;;;;;;;8.35;1.90;;;;;;;;;;4986359;28;20044;-61
2021/09/11 06:21:33;;;;;;;6.22;1.70;;;;;;;;;;4984571;28;20144;-61
2021/09/11 06:23:59;;;;;;;6.53;1.77;;;;;;;;;;4984293;28;20132;-61
2021/09/11 06:26:25;;;;;;;7.50;2.58;;;;;;;;;;4985971;28;20756;-62
2021/09/11 06:28:51;;;;;;;6.90;2.10;;;;;;;;;;4987515;28;20034;-61
2021/09/11 06:31:17;;;;;;;10.68;2.20;;;;;;;;;;4985734;28;20354;-62
2021/09/11 06:33:43;;;;;;;6.47;2.10;;;;;;;;;;4987162;28;20045;-60
2021/09/11 06:36:12;;;;;;;6.63;2.00;;;;;;;;;;4986735;28;20042;-61
2021/09/11 06:38:38;;;;;;;6.82;1.85;;;;;;;;;;4994903;28;20049;-61
2021/09/11 06:41:04;;;;;;;6.60;1.95;;;;;;;;;;4992489;28;20046;-62
2021/09/11 06:43:30;;;;;;;5.10;1.77;;;;;;;;;;4990532;28;20738;-61
2021/09/11 06:46:16;;;;;;;8.88;2.03;;;;;;;;;;4984124;28;20069;-61
2021/09/11 06:48:41;;;;;;;11.10;2.40;;;;;;;;;;5002727;28;20894;-61
2021/09/11 06:51:07;;;;;;;9.45;2.47;;;;;;;;;;5002805;28;20038;-61
2021/09/11 06:53:40;;;;;;;9.60;2.13;;;;;;;;;;5000797;28;20057;-62
2021/09/11 06:56:06;;;;;;;9.18;2.00;;;;;;;;;;5003670;28;20116;-61
2021/09/11 06:58:33;;;;;;;8.85;1.88;;;;;;;;;;5004034;28;20393;-61
2021/09/11 07:01:00;;;;;;;8.07;1.83;;;;;;;;;;5000644;28;20053;-60
2021/09/11 07:03:28;;;;;;;6.22;1.73;;;;;;;;;;5004413;28;20038;-61
2021/09/11 07:05:54;;;;;;;6.93;1.80;;;;;;;;;;5008946;28;20166;-61
2021/09/11 07:08:20;;;;;;;7.13;1.58;;;;;;;;;;4999367;28;20058;-62
2021/09/11 07:10:46;;;;;;;8.73;1.83;;;;;;;;;;4988892;28;20450;-61
2021/09/11 07:13:12;;;;;;;6.35;1.33;;;;;;;;;;5006158;28;20645;-62
2021/09/11 07:15:39;;;;;;;6.95;1.67;;;;;;;;;;5005116;28;20091;-61
2021/09/11 07:18:05;;;;;;;6.53;1.67;;;;;;;;;;5006140;28;20045;-61
2021/09/11 07:20:31;;;;;;;7.05;2.13;;;;;;;;;;5003049;28;20769;-61
2021/09/11 07:22:57;;;;;;;9.07;1.38;;;;;;;;;;5005945;28;20044;-61
2021/09/11 07:25:23;;;;;;;9.48;2.28;;;;;;;;;;4989768;28;20042;-61
2021/09/11 07:27:49;;;;;;;9.38;2.72;;;;;;;;;;4986923;28;20050;-62
2021/09/11 07:30:14;;;;;;;8.75;3.05;;;;;;;;;;4987215;28;20156;-59
2021/09/11 07:32:40;;;;;;;6.90;2.30;;;;;;;;;;4987026;28;22127;-59
2021/09/11 07:35:06;;;;;;;6.22;1.77;;;;;;;;;;4986468;28;20056;-60
2021/09/11 07:37:32;;;;;;;12.68;2.05;;;;;;;;;;4988200;28;20034;-61
2021/09/11 07:39:58;;;;;;;8.73;1.83;;;;;;;;;;4987137;28;20100;-59
2021/09/11 07:42:24;;;;;;;9.45;2.15;;;;;;;;;;4987767;28;20065;-60
2021/09/11 07:44:50;;;;;;;6.25;1.90;;;;;;;;;;4988058;28;20575;-60
2021/09/11 07:47:17;;;;;;;7.30;2.20;;;;;;;;;;4987323;28;20518;-60
2021/09/11 07:49:43;;;;;;;4.97;1.90;;;;;;;;;;4984717;28;20072;-58
2021/09/11 07:52:09;;;;;;;7.30;2.05;;;;;;;;;;4986145;28;20037;-61
2021/09/11 07:54:35;;;;;;;6.97;1.90;;;;;;;;;;4987385;28;20447;-61
2021/09/11 07:57:01;;;;;;;8.68;1.88;;;;;;;;;;4989455;28;20085;-60
2021/09/11 07:59:27;;;;;;;4.40;1.50;;;;;;;;;;4988291;28;20038;-61
2021/09/11 08:01:53;;;;;;;6.20;2.05;;;;;;;;;;4989858;28;20146;-61
2021/09/11 08:04:18;;;;;;;6.28;1.83;;;;;;;;;;4993515;28;20049;-60
2021/09/11 08:06:44;;;;;;;10.38;1.73;;;;;;;;;;4992462;28;20048;-61
2021/09/11 08:09:10;;;;;;;8.88;2.13;;;;;;;;;;4989255;28;20685;-61
2021/09/11 08:11:36;;;;;;;6.65;1.80;;;;;;;;;;4991569;28;20057;-61
2021/09/11 08:14:02;;;;;;;10.25;1.80;;;;;;;;;;4991049;28;20034;-61
2021/09/11 08:16:28;;;;;;;9.80;1.70;;;;;;;;;;4990463;28;20632;-60
2021/09/11 08:18:54;;;;;;;6.43;1.60;;;;;;;;;;5000232;28;20041;-61
2021/09/11 08:21:20;;;;;;;8.25;2.00;;;;;;;;;;4989701;28;20140;-61
2021/09/11 08:23:46;;;;;;;6.18;1.65;;;;;;;;;;4999623;28;20584;-60
2021/09/11 08:26:12;;;;;;;6.35;1.70;;;;;;;;;;4991387;28;20045;-60
2021/09/11 08:28:38;;;;;;;7.50;1.83;;;;;;;;;;4992415;28;20566;-62
2021/09/11 08:31:03;;;;;;;5.45;1.63;;;;;;;;;;4997046;28;20538;-61
2021/09/11 08:33:29;;;;;;;8.52;1.70;;;;;;;;;;4990515;28;20115;-61
2021/09/11 08:35:55;;;;;;;6.57;1.50;;;;;;;;;;4992122;28;20554;-59
2021/09/11 08:38:21;;;;;;;10.95;1.90;;;;;;;;;;4989360;28;20090;-60
2021/09/11 08:40:47;;;;;;;5.38;1.70;;;;;;;;;;4989501;28;20054;-59
2021/09/11 08:43:17;;;;;;;8.90;2.20;;;;;;;;;;4990045;28;20034;-59
2021/09/11 08:45:42;;;;;;;6.85;1.70;;;;;;;;;;4989224;28;20037;-61
2021/09/11 08:48:08;;;;;;;5.13;2.17;;;;;;;;;;4990720;28;20049;-60
2021/09/11 08:50:35;;;;;;;6.63;2.30;;;;;;;;;;4988324;28;20053;-58
2021/09/11 08:53:00;;;;;;;6.43;1.67;;;;;;;;;;4991933;28;20069;-60
2021/09/11 08:55:26;;;;;;;8.45;1.70;;;;;;;;;;4991464;28;20784;-60
2021/09/11 08:58:05;;;;;;;10.90;2.20;;;;;;;;;;4990584;28;20038;-61
2021/09/11 09:00:48;;;;;;;5.45;2.08;;;;;;;;;;4990237;28;20038;-60
2021/09/11 09:03:23;;;;;;;6.53;2.15;;;;;;;;;;4987644;28;20125;-61
2021/09/11 09:05:49;;;;;;;6.85;1.70;;;;;;;;;;4996454;28;20046;-61
2021/09/11 09:08:15;;;;;;;6.55;2.13;;;;;;;;;;4990125;28;20042;-60
2021/09/11 09:10:40;;;;;;;11.00;2.55;;;;;;;;;;4987993;28;20372;-60
2021/09/11 09:13:07;;;;;;;5.88;1.90;;;;;;;;;;4986016;28;20073;-61
2021/09/11 09:15:32;;;;;;;5.95;1.67;;;;;;;;;;4992764;28;20062;-60
2021/09/11 09:17:59;;;;;;;7.45;2.22;;;;;;;;;;4991083;28;20096;-61
2021/09/11 09:20:27;;;;;;;9.57;2.45;;;;;;;;;;4996837;28;20173;-61
2021/09/11 09:22:59;;;;;;;8.57;2.28;;;;;;;;;;4989844;28;20038;-61
2021/09/11 09:25:25;;;;;;;7.82;2.35;;;;;;;;;;4989412;28;20053;-57
2021/09/11 09:27:51;;;;;;;8.85;2.80;;;;;;;;;;4990063;28;20040;-61
2021/09/11 09:30:21;;;;;;;8.68;2.63;;;;;;;;;;4988868;28;20088;-60
2021/09/11 09:32:51;;;;;;;10.25;2.85;;;;;;;;;;4995864;28;20044;-61
2021/09/11 09:35:22;;;;;;;13.15;2.78;;;;;;;;;;4989264;28;20050;-60
2021/09/11 09:38:20;;;;;;;10.82;2.40;;;;;;;;;;4987758;28;20045;-67
2021/09/11 09:40:47;;;;;;;15.98;2.70;;;;;;;;;;5008850;28;20046;-61
2021/09/11 09:43:28;;;;;;;9.55;3.08;;;;;;;;;;4996164;28;20815;-60
2021/09/11 09:46:07;;;;;;;9.32;3.03;;;;;;;;;;4975467;28;20096;-59
2021/09/11 09:48:36;;;;;;;8.70;2.80;;;;;;;;;;4988042;28;20185;-60
2021/09/11 09:51:03;;;;;;;13.00;3.10;;;;;;;;;;4987346;28;20124;-59
2021/09/11 09:53:29;;;;;;;9.98;2.95;;;;;;;;;;4986646;28;20037;-60
2021/09/11 09:55:55;;;;;;;6.45;2.58;;;;;;;;;;4986374;28;20076;-58
2021/09/11 09:58:21;;;;;;;5.50;2.63;;;;;;;;;;4988849;28;20075;-60
2021/09/11 10:00:48;;;;;;;12.52;3.17;;;;;;;;;;4988536;28;20522;-61
2021/09/11 10:03:14;;;;;;;9.43;3.42;;;;;;;;;;4987383;28;20315;-60
2021/09/11 10:05:41;;;;;;;7.97;3.10;;;;;;;;;;4986587;28;20404;-60
2021/09/11 10:08:08;;;;;;;11.13;3.72;;;;;;;;;;4986739;28;20069;-61
2021/09/11 10:10:36;;;;;;;19.02;3.60;;;;;;;;;;4985778;28;20046;-61
2021/09/11 10:13:05;;;;;;;9.68;3.25;;;;;;;;;;4996773;28;20834;-58
2021/09/11 10:15:35;;;;;;;12.23;2.97;;;;;;;;;;4986189;28;20100;-60
2021/09/11 10:18:01;;;;;;;8.27;3.10;;;;;;;;;;4987269;28;20039;-61
2021/09/11 10:20:27;;;;;;;9.00;3.17;;;;;;;;;;5017083;28;20132;-61
2021/09/11 10:23:06;;;;;;;7.97;3.42;;;;;;;;;;4987260;28;20049;-61
2021/09/11 10:25:46;;;;;;;9.68;2.90;;;;;;;;;;4986368;28;20125;-60
2021/09/11 10:28:13;;;;;;;16.00;3.60;;;;;;;;;;4994753;28;20315;-61
2021/09/11 10:30:57;;;;;;;9.45;3.10;;;;;;;;;;4985719;28;20113;-60
2021/09/11 10:33:41;;;;;;;7.20;3.15;;;;;;;;;;4981210;28;20456;-59
2021/09/11 10:36:11;;;;;;;10.30;2.92;;;;;;;;;;4987084;28;20046;-61
2021/09/11 10:38:41;;;;;;;10.43;3.58;;;;;;;;;;4988804;28;20045;-61
2021/09/11 10:41:08;;;;;;;7.95;3.30;;;;;;;;;;4985932;28;20046;-61
2021/09/11 10:43:34;;;;;;;6.57;2.50;;;;;;;;;;4988785;28;20044;-61
2021/09/11 10:46:01;;;;;;;6.15;2.80;;;;;;;;;;4987397;28;20050;-60
2021/09/11 10:48:31;;;;;;;6.30;2.45;;;;;;;;;;4986120;28;20034;-60
2021/09/11 10:51:03;;;;;;;7.35;3.13;;;;;;;;;;4988426;28;20088;-60
2021/09/11 10:53:29;;;;;;;8.77;2.80;;;;;;;;;;5018553;28;20499;-60
2021/09/11 10:55:55;;;;;;;5.70;2.55;;;;;;;;;;4987125;28;20045;-61
2021/09/11 10:58:25;;;;;;;6.78;2.67;;;;;;;;;;4987839;28;20093;-62
2021/09/11 11:00:57;;;;;;;6.28;2.88;;;;;;;;;;4986332;28;21641;-60
2021/09/11 11:03:23;;;;;;;5.60;2.30;;;;;;;;;;4986512;28;20049;-60
2021/09/11 11:05:59;;;;;;;8.00;2.95;;;;;;;;;;4994252;28;20034;-60
2021/09/11 11:08:26;;;;;;;8.30;2.67;;;;;;;;;;4987044;28;20053;-59
2021/09/11 11:10:52;;;;;;;5.85;2.40;;;;;;;;;;4986329;28;20932;-59
2021/09/11 11:13:18;;;;;;;9.75;3.05;;;;;;;;;;4986238;28;20069;-60
2021/09/11 11:15:52;;;;;;;5.07;2.50;;;;;;;;;;4986107;28;20121;-60
2021/09/11 11:18:18;;;;;;;5.90;2.83;;;;;;;;;;4993825;28;20037;-59
2021/09/11 11:20:44;;;;;;;6.05;2.70;;;;;;;;;;4984999;28;20080;-60
2021/09/11 11:23:10;;;;;;;11.75;3.00;;;;;;;;;;4995493;28;20049;-60
2021/09/11 11:25:38;;;;;;;6.05;2.45;;;;;;;;;;4985323;28;20056;-59
2021/09/11 11:28:08;;;;;;;6.63;2.67;;;;;;;;;;4988245;28;20778;-59
2021/09/11 11:30:38;;;;;;;13.43;2.80;;;;;;;;;;4997836;28;20042;-59
2021/09/11 11:33:05;;;;;;;8.27;3.00;;;;;;;;;;4988356;28;20037;-60
2021/09/11 11:35:31;;;;;;;5.45;2.78;;;;;;;;;;4991464;28;20042;-60
2021/09/11 11:37:59;;;;;;;7.13;2.88;;;;;;;;;;4990409;28;20126;-58
2021/09/11 11:40:26;;;;;;;6.20;2.83;;;;;;;;;;4989776;28;20056;-60
2021/09/11 11:42:52;;;;;;;5.53;2.90;;;;;;;;;;4989631;28;20495;-59
2021/09/11 11:45:23;;;;;;;5.38;2.92;;;;;;;;;;4989251;28;20053;-59
2021/09/11 11:47:58;;;;;;;5.78;3.03;;;;;;;;;;4991462;28;20026;-59
2021/09/11 11:50:27;;;;;;;5.63;2.97;;;;;;;;;;4991707;28;20071;-59
2021/09/11 11:52:57;;;;;;;8.63;3.75;;;;;;;;;;4993543;28;20079;-59
2021/09/11 11:55:24;;;;;;;6.70;3.00;;;;;;;;;;4998010;28;20160;-59
2021/09/11 11:57:50;;;;;;;7.03;3.17;;;;;;;;;;4994951;28;20157;-62
2021/09/11 12:00:19;;;;;;;7.95;3.42;;;;;;;;;;4994679;28;21059;-60
2021/09/11 12:02:49;;;;;;;7.03;3.60;;;;;;;;;;4989194;28;20042;-60
2021/09/11 12:05:28;;;;;;;7.15;3.40;;;;;;;;;;4990047;28;20041;-60
2021/09/11 12:07:55;;;;;;;9.35;3.30;;;;;;;;;;4991716;28;20056;-59
2021/09/11 12:10:23;;;;;;;5.93;3.30;;;;;;;;;;4989856;28;20120;-60
2021/09/11 12:12:51;;;;;;;8.55;3.55;;;;;;;;;;4992746;28;20077;-60
2021/09/11 12:15:18;;;;;;;6.65;3.60;;;;;;;;;;4992936;28;20049;-60
2021/09/11 12:17:53;;;;;;;6.13;3.55;;;;;;;;;;5007587;28;20060;-59
2021/09/11 12:20:19;;;;;;;5.88;3.28;;;;;;;;;;4993626;28;20042;-60
2021/09/11 12:23:01;;;;;;;7.45;3.95;;;;;;;;;;4993060;28;20442;-60
2021/09/11 12:25:26;;;;;;;7.72;4.30;;;;;;;;;;4991306;28;20638;-60
2021/09/11 12:27:53;;;;;;;7.75;3.63;;;;;;;;;;4992799;28;20459;-61
2021/09/11 12:30:18;;;;;;;6.38;3.42;;;;;;;;;;4991312;28;20034;-59
2021/09/11 12:32:50;;;;;;;7.53;3.65;;;;;;;;;;4991068;28;20793;-61
2021/09/11 12:35:16;;;;;;;7.93;4.32;;;;;;;;;;5008282;28;20050;-58
2021/09/11 12:37:54;;;;;;;8.45;4.05;;;;;;;;;;5007260;28;20044;-60
2021/09/11 12:40:21;;;;;;;8.07;4.22;;;;;;;;;;5005468;28;20060;-61
2021/09/11 12:42:58;;;;;;;8.23;4.93;;;;;;;;;;4993474;28;20045;-59
2021/09/11 12:45:23;;;;;;;7.65;4.20;;;;;;;;;;5012574;28;20100;-61
2021/09/11 12:47:49;;;;;;;8.23;4.57;;;;;;;;;;5006616;28;20069;-59
2021/09/11 12:50:15;;;;;;;8.05;4.18;;;;;;;;;;5006086;28;20044;-61
2021/09/11 12:52:41;;;;;;;8.95;4.97;;;;;;;;;;5002600;28;20120;-60
2021/09/11 12:55:07;;;;;;;10.63;4.70;;;;;;;;;;5004538;28;20943;-61
2021/09/11 12:57:32;;;;;;;9.10;5.20;;;;;;;;;;5005262;28;20128;-61
2021/09/11 12:59:58;;;;;;;7.68;4.15;;;;;;;;;;5004921;28;20049;-61
2021/09/11 13:02:24;;;;;;;8.98;4.57;;;;;;;;;;5013122;28;20077;-61
2021/09/11 13:04:53;;;;;;;8.98;5.10;;;;;;;;;;5004596;28;20633;-61
2021/09/11 13:07:19;;;;;;;8.18;4.32;;;;;;;;;;5012740;28;20045;-61
2021/09/11 13:09:45;;;;;;;8.10;4.22;;;;;;;;;;5004874;28;20041;-60
2021/09/11 13:12:11;;;;;;;7.32;4.28;;;;;;;;;;5007059;28;20045;-61
2021/09/11 13:14:37;;;;;;;8.35;4.50;;;;;;;;;;5007718;28;20483;-61
2021/09/11 13:17:04;;;;;;;8.07;4.55;;;;;;;;;;5007329;28;20458;-61
2021/09/11 13:19:30;;;;;;;9.15;4.68;;;;;;;;;;5007102;28;20971;-60
2021/09/11 13:21:56;;;;;;;8.45;4.72;;;;;;;;;;5006168;28;20050;-60
2021/09/11 13:24:22;;;;;;;9.07;4.55;;;;;;;;;;5006078;28;20037;-60
2021/09/11 13:26:48;;;;;;;8.70;4.88;;;;;;;;;;5007301;28;20049;-60
2021/09/11 13:29:14;;;;;;;8.07;4.50;;;;;;;;;;5010918;28;20261;-59
2021/09/11 13:31:40;;;;;;;8.82;4.43;;;;;;;;;;5007169;28;20030;-60
2021/09/11 13:34:05;;;;;;;12.85;5.45;;;;;;;;;;5008971;28;20552;-59
2021/09/11 13:36:31;;;;;;;9.25;5.20;;;;;;;;;;5010803;28;21704;-61
2021/09/11 13:38:57;;;;;;;10.23;5.70;;;;;;;;;;5009547;28;20048;-61
2021/09/11 13:41:24;;;;;;;9.00;5.07;;;;;;;;;;5008084;28;20118;-61
2021/09/11 13:46:56;;;;;;;8.27;4.82;;;;;;;;;;4974086;28;20780;-61
2021/09/11 13:49:22;;;;;;;9.30;5.20;;;;;;;;;;4994406;28;20149;-61
2021/09/11 13:51:48;;;;;;;10.38;4.95;;;;;;;;;;4991281;28;20201;-61
2021/09/11 13:54:13;;;;;;;7.90;4.70;;;;;;;;;;4991074;28;20392;-61
2021/09/11 13:56:39;;;;;;;7.53;4.30;;;;;;;;;;4988186;28;20353;-59
2021/09/11 13:59:06;;;;;;;10.75;4.68;;;;;;;;;;4989241;28;22314;-61
2021/09/11 14:01:32;;;;;;;9.55;4.85;;;;;;;;;;4987328;28;20951;-61
2021/09/11 14:03:58;;;;;;;7.82;3.92;;;;;;;;;;4986346;28;20048;-59
2021/09/11 14:06:24;;;;;;;6.20;3.55;;;;;;;;;;4986607;28;20068;-60
2021/09/11 14:08:50;;;;;;;6.20;3.45;;;;;;;;;;4986462;28;20045;-60
2021/09/11 14:11:16;;;;;;;5.90;3.28;;;;;;;;;;4986756;28;20038;-61
2021/09/11 14:13:42;;;;;;;8.93;3.83;;;;;;;;;;4986647;28;22166;-61
2021/09/11 14:16:08;;;;;;;6.65;3.30;;;;;;;;;;4986696;28;20482;-60
2021/09/11 14:18:34;;;;;;;6.40;3.72;;;;;;;;;;4984235;28;20035;-61
2021/09/11 14:21:01;;;;;;;8.48;3.72;;;;;;;;;;4993764;28;20061;-60
2021/09/11 14:23:27;;;;;;;7.30;3.70;;;;;;;;;;4985539;28;20042;-60
2021/09/11 14:25:53;;;;;;;6.70;3.78;;;;;;;;;;4987935;28;20487;-59
2021/09/11 14:28:23;;;;;;;5.88;3.83;;;;;;;;;;4985124;28;20065;-62
2021/09/11 14:30:50;;;;;;;8.70;4.25;;;;;;;;;;4986176;28;20534;-62
2021/09/11 14:33:15;;;;;;;6.50;3.83;;;;;;;;;;4986345;28;20065;-62
2021/09/11 14:35:42;;;;;;;8.38;4.35;;;;;;;;;;4991462;28;20134;-61
2021/09/11 14:38:08;;;;;;;7.80;4.20;;;;;;;;;;4995244;28;20042;-62
2021/09/11 14:40:34;;;;;;;7.57;4.00;;;;;;;;;;4984260;28;20054;-61
2021/09/11 14:43:00;;;;;;;7.63;3.80;;;;;;;;;;4984800;28;20065;-62
2021/09/11 14:45:25;;;;;;;7.95;4.00;;;;;;;;;;4987612;28;20491;-63